sensor_id;sensor_type;location;lat;lon;timestamp;temperature;humidity
51739;DHT22;37815;52.692;6.226;2023-02-01T00:00:25;7.90;99.90
51739;DHT22;37815;52.692;6.226;2023-02-01T00:05:25;7.90;99.90
51739;DHT22;37815;52.692;6.226;2023-02-01T00:10:26;7.90;99.90
51739;DHT22;37815;52.692;6.226;2023-02-01T00:15:26;7.90;99.90
51739;DHT22;37815;52.692;6.226;2023-02-01T00:20:27;7.90;99.90
51739;DHT22;37815;52.692;6.226;2023-02-01T00:25:28;7.90;99.90
51739;DHT22;37815;52.692;6.226;2023-02-01T00:30:28;7.90;99.90
51739;DHT22;37815;52.692;6.226;2023-02-01T00:35:29;7.90;99.90
51739;DHT22;37815;52.692;6.226;2023-02-01T00:40:29;7.90;99.90
51739;DHT22;37815;52.692;6.226;2023-02-01T00:45:30;7.90;99.90
51739;DHT22;37815;52.692;6.226;2023-02-01T00:50:30;7.90;99.90
51739;DHT22;37815;52.692;6.226;2023-02-01T00:55:31;7.90;99.90
51739;DHT22;37815;52.692;6.226;2023-02-01T01:00:32;7.90;99.90
51739;DHT22;37815;52.692;6.226;2023-02-01T01:05:33;7.90;99.90
51739;DHT22;37815;52.692;6.226;2023-02-01T01:10:33;7.90;99.90
51739;DHT22;37815;52.692;6.226;2023-02-01T01:15:38;7.90;99.90
51739;DHT22;37815;52.692;6.226;2023-02-01T01:20:40;7.90;99.90
51739;DHT22;37815;52.692;6.226;2023-02-01T01:25:41;7.90;99.90
51739;DHT22;37815;52.692;6.226;2023-02-01T01:30:42;7.90;99.90
51739;DHT22;37815;52.692;6.226;2023-02-01T01:35:42;7.90;99.90
51739;DHT22;37815;52.692;6.226;2023-02-01T01:40:46;7.90;99.90
51739;DHT22;37815;52.692;6.226;2023-02-01T01:45:47;7.90;99.90
51739;DHT22;37815;52.692;6.226;2023-02-01T01:55:55;7.90;99.90
51739;DHT22;37815;52.692;6.226;2023-02-01T02:00:56;7.90;99.90
51739;DHT22;37815;52.692;6.226;2023-02-01T02:05:58;7.90;99.90
51739;DHT22;37815;52.692;6.226;2023-02-01T02:11:00;7.90;99.90
51739;DHT22;37815;52.692;6.226;2023-02-01T02:42:50;7.90;99.90
51739;DHT22;37815;52.692;6.226;2023-02-01T02:48:25;7.90;99.90
51739;DHT22;37815;52.692;6.226;2023-02-01T02:53:34;7.90;99.90
51739;DHT22;37815;52.692;6.226;2023-02-01T02:58:56;7.90;99.90
51739;DHT22;37815;52.692;6.226;2023-02-01T03:04:17;7.90;99.90
51739;DHT22;37815;52.692;6.226;2023-02-01T03:14:25;7.90;99.90
51739;DHT22;37815;52.692;6.226;2023-02-01T03:19:33;7.90;99.90
51739;DHT22;37815;52.692;6.226;2023-02-01T03:24:39;7.90;99.90
51739;DHT22;37815;52.692;6.226;2023-02-01T03:29:48;7.90;99.90
51739;DHT22;37815;52.692;6.226;2023-02-01T03:34:50;7.90;99.90
51739;DHT22;37815;52.692;6.226;2023-02-01T03:40:05;7.90;99.90
51739;DHT22;37815;52.692;6.226;2023-02-01T03:45:11;7.90;99.90
51739;DHT22;37815;52.692;6.226;2023-02-01T03:50:21;8.60;99.90
51739;DHT22;37815;52.692;6.226;2023-02-01T03:55:25;7.90;99.90
51739;DHT22;37815;52.692;6.226;2023-02-01T04:00:28;7.90;99.90
51739;DHT22;37815;52.692;6.226;2023-02-01T04:05:28;7.90;99.90
51739;DHT22;37815;52.692;6.226;2023-02-01T04:10:30;7.90;99.90
51739;DHT22;37815;52.692;6.226;2023-02-01T04:15:31;7.90;99.90
51739;DHT22;37815;52.692;6.226;2023-02-01T04:20:32;7.90;99.90
51739;DHT22;37815;52.692;6.226;2023-02-01T04:25:32;7.90;99.90
51739;DHT22;37815;52.692;6.226;2023-02-01T04:30:33;7.90;99.90
51739;DHT22;37815;52.692;6.226;2023-02-01T04:35:34;7.90;99.90
51739;DHT22;37815;52.692;6.226;2023-02-01T04:40:34;7.90;99.90
51739;DHT22;37815;52.692;6.226;2023-02-01T04:45:35;7.90;99.90
51739;DHT22;37815;52.692;6.226;2023-02-01T04:50:35;7.90;99.90
51739;DHT22;37815;52.692;6.226;2023-02-01T04:55:37;7.90;99.90
51739;DHT22;37815;52.692;6.226;2023-02-01T05:00:38;7.90;99.90
51739;DHT22;37815;52.692;6.226;2023-02-01T05:05:39;7.90;99.90
51739;DHT22;37815;52.692;6.226;2023-02-01T05:10:39;7.90;99.90
51739;DHT22;37815;52.692;6.226;2023-02-01T05:15:40;7.90;99.90
51739;DHT22;37815;52.692;6.226;2023-02-01T05:20:40;7.90;99.90
51739;DHT22;37815;52.692;6.226;2023-02-01T05:25:41;7.90;99.90
51739;DHT22;37815;52.692;6.226;2023-02-01T05:30:42;7.90;99.90
51739;DHT22;37815;52.692;6.226;2023-02-01T05:35:42;7.90;99.90
51739;DHT22;37815;52.692;6.226;2023-02-01T05:40:43;7.90;99.90
51739;DHT22;37815;52.692;6.226;2023-02-01T05:45:51;7.90;99.90
51739;DHT22;37815;52.692;6.226;2023-02-01T05:50:52;7.90;99.90
51739;DHT22;37815;52.692;6.226;2023-02-01T05:55:53;7.90;99.90
51739;DHT22;37815;52.692;6.226;2023-02-01T06:00:53;7.90;99.90
51739;DHT22;37815;52.692;6.226;2023-02-01T06:05:54;8.00;99.90
51739;DHT22;37815;52.692;6.226;2023-02-01T06:11:03;7.90;99.90
51739;DHT22;37815;52.692;6.226;2023-02-01T06:16:04;7.90;99.90
51739;DHT22;37815;52.692;6.226;2023-02-01T06:21:08;7.90;99.90
51739;DHT22;37815;52.692;6.226;2023-02-01T06:26:09;7.90;99.90
51739;DHT22;37815;52.692;6.226;2023-02-01T06:31:10;7.90;99.90
51739;DHT22;37815;52.692;6.226;2023-02-01T06:36:11;7.90;99.90
51739;DHT22;37815;52.692;6.226;2023-02-01T06:41:16;8.00;99.90
51739;DHT22;37815;52.692;6.226;2023-02-01T06:46:17;8.00;99.90
51739;DHT22;37815;52.692;6.226;2023-02-01T06:51:19;8.00;99.90
51739;DHT22;37815;52.692;6.226;2023-02-01T06:56:21;8.00;99.90
51739;DHT22;37815;52.692;6.226;2023-02-01T07:01:22;8.00;99.90
51739;DHT22;37815;52.692;6.226;2023-02-01T07:06:22;8.00;99.90
51739;DHT22;37815;52.692;6.226;2023-02-01T07:11:23;8.00;99.90
51739;DHT22;37815;52.692;6.226;2023-02-01T07:16:24;8.90;99.90
51739;DHT22;37815;52.692;6.226;2023-02-01T07:21:25;8.00;99.90
51739;DHT22;37815;52.692;6.226;2023-02-01T07:26:26;8.10;99.90
51739;DHT22;37815;52.692;6.226;2023-02-01T07:31:26;8.00;99.90
51739;DHT22;37815;52.692;6.226;2023-02-01T07:36:29;8.00;99.90
51739;DHT22;37815;52.692;6.226;2023-02-01T07:41:29;8.00;99.90
51739;DHT22;37815;52.692;6.226;2023-02-01T07:46:30;8.00;99.90
51739;DHT22;37815;52.692;6.226;2023-02-01T07:51:31;8.00;99.90
51739;DHT22;37815;52.692;6.226;2023-02-01T07:56:32;8.00;99.90
51739;DHT22;37815;52.692;6.226;2023-02-01T08:01:32;8.00;99.90
51739;DHT22;37815;52.692;6.226;2023-02-01T08:06:33;8.00;99.90
51739;DHT22;37815;52.692;6.226;2023-02-01T08:11:35;8.00;99.90
51739;DHT22;37815;52.692;6.226;2023-02-01T08:16:38;8.00;99.90
51739;DHT22;37815;52.692;6.226;2023-02-01T08:21:39;8.00;99.90
51739;DHT22;37815;52.692;6.226;2023-02-01T08:26:40;8.00;99.90
51739;DHT22;37815;52.692;6.226;2023-02-01T08:31:40;8.00;99.90
51739;DHT22;37815;52.692;6.226;2023-02-01T08:36:42;8.00;99.90
51739;DHT22;37815;52.692;6.226;2023-02-01T08:41:42;8.10;99.90
51739;DHT22;37815;52.692;6.226;2023-02-01T08:47:03;8.10;99.90
51739;DHT22;37815;52.692;6.226;2023-02-01T08:52:04;8.10;99.90
51739;DHT22;37815;52.692;6.226;2023-02-01T08:57:05;8.10;99.90
51739;DHT22;37815;52.692;6.226;2023-02-01T09:02:05;8.10;99.90
51739;DHT22;37815;52.692;6.226;2023-02-01T09:07:06;8.10;99.90
51739;DHT22;37815;52.692;6.226;2023-02-01T09:12:07;8.10;99.90
51739;DHT22;37815;52.692;6.226;2023-02-01T09:17:07;8.10;99.90
51739;DHT22;37815;52.692;6.226;2023-02-01T09:22:08;8.10;99.90
51739;DHT22;37815;52.692;6.226;2023-02-01T09:27:08;8.10;99.90
51739;DHT22;37815;52.692;6.226;2023-02-01T09:32:09;8.10;99.90
51739;DHT22;37815;52.692;6.226;2023-02-01T09:37:10;8.10;99.90
51739;DHT22;37815;52.692;6.226;2023-02-01T09:47:56;8.20;99.90
51739;DHT22;37815;52.692;6.226;2023-02-01T09:53:09;8.10;99.90
51739;DHT22;37815;52.692;6.226;2023-02-01T09:58:19;8.10;99.90
51739;DHT22;37815;52.692;6.226;2023-02-01T10:03:21;8.20;99.90
51739;DHT22;37815;52.692;6.226;2023-02-01T10:08:47;8.20;99.90
51739;DHT22;37815;52.692;6.226;2023-02-01T10:13:59;8.20;99.90
51739;DHT22;37815;52.692;6.226;2023-02-01T10:24:38;8.20;99.90
51739;DHT22;37815;52.692;6.226;2023-02-01T10:29:43;8.20;99.90
51739;DHT22;37815;52.692;6.226;2023-02-01T10:34:57;8.20;99.90
51739;DHT22;37815;52.692;6.226;2023-02-01T10:40:14;8.20;99.90
51739;DHT22;37815;52.692;6.226;2023-02-01T10:45:27;8.50;99.90
51739;DHT22;37815;52.692;6.226;2023-02-01T11:00:44;8.20;99.90
51739;DHT22;37815;52.692;6.226;2023-02-01T11:05:46;8.20;99.90
51739;DHT22;37815;52.692;6.226;2023-02-01T11:10:49;8.20;99.90
51739;DHT22;37815;52.692;6.226;2023-02-01T11:15:56;8.20;99.90
51739;DHT22;37815;52.692;6.226;2023-02-01T11:20:59;8.20;99.90
51739;DHT22;37815;52.692;6.226;2023-02-01T11:26:12;8.30;99.90
51739;DHT22;37815;52.692;6.226;2023-02-01T11:31:13;8.30;99.90
51739;DHT22;37815;52.692;6.226;2023-02-01T11:36:24;8.30;99.90
51739;DHT22;37815;52.692;6.226;2023-02-01T11:41:27;8.40;99.90
51739;DHT22;37815;52.692;6.226;2023-02-01T11:46:33;8.40;99.90
51739;DHT22;37815;52.692;6.226;2023-02-01T11:51:46;8.40;99.90
51739;DHT22;37815;52.692;6.226;2023-02-01T11:56:57;8.30;99.90
51739;DHT22;37815;52.692;6.226;2023-02-01T12:23:50;8.40;99.90
51739;DHT22;37815;52.692;6.226;2023-02-01T12:34:11;8.30;99.90
51739;DHT22;37815;52.692;6.226;2023-02-01T12:44:51;8.40;99.90
51739;DHT22;37815;52.692;6.226;2023-02-01T13:00:44;8.30;99.90
51739;DHT22;37815;52.692;6.226;2023-02-01T13:10:52;8.40;99.90
51739;DHT22;37815;52.692;6.226;2023-02-01T13:16:09;8.40;99.90
51739;DHT22;37815;52.692;6.226;2023-02-01T13:21:17;8.40;99.90
51739;DHT22;37815;52.692;6.226;2023-02-01T13:26:18;8.50;99.90
51739;DHT22;37815;52.692;6.226;2023-02-01T13:31:44;8.50;99.90
51739;DHT22;37815;52.692;6.226;2023-02-01T13:42:28;8.50;99.90
51739;DHT22;37815;52.692;6.226;2023-02-01T13:47:39;8.50;99.90
51739;DHT22;37815;52.692;6.226;2023-02-01T13:52:43;8.50;99.90
51739;DHT22;37815;52.692;6.226;2023-02-01T13:57:44;8.60;99.90
51739;DHT22;37815;52.692;6.226;2023-02-01T14:02:47;8.60;99.90
51739;DHT22;37815;52.692;6.226;2023-02-01T14:34:10;8.60;99.90
51739;DHT22;37815;52.692;6.226;2023-02-01T14:44:28;8.60;99.90
51739;DHT22;37815;52.692;6.226;2023-02-01T14:49:34;8.60;99.90
51739;DHT22;37815;52.692;6.226;2023-02-01T14:54:36;8.60;99.90
51739;DHT22;37815;52.692;6.226;2023-02-01T14:59:37;8.60;99.90
51739;DHT22;37815;52.692;6.226;2023-02-01T15:04:41;8.60;99.90
51739;DHT22;37815;52.692;6.226;2023-02-01T15:09:45;8.60;99.90
51739;DHT22;37815;52.692;6.226;2023-02-01T15:20:30;8.60;99.90
51739;DHT22;37815;52.692;6.226;2023-02-01T15:25:37;8.60;99.90
51739;DHT22;37815;52.692;6.226;2023-02-01T15:30:38;8.60;99.90
51739;DHT22;37815;52.692;6.226;2023-02-01T15:35:45;8.60;99.90
51739;DHT22;37815;52.692;6.226;2023-02-01T15:41:17;8.70;99.90
51739;DHT22;37815;52.692;6.226;2023-02-01T15:46:24;8.70;99.90
51739;DHT22;37815;52.692;6.226;2023-02-01T15:51:31;8.80;99.90
51739;DHT22;37815;52.692;6.226;2023-02-01T15:56:38;8.80;99.90
51739;DHT22;37815;52.692;6.226;2023-02-01T16:01:39;8.70;99.90
51739;DHT22;37815;52.692;6.226;2023-02-01T16:06:46;8.70;99.90
51739;DHT22;37815;52.692;6.226;2023-02-01T16:12:00;8.70;99.90
51739;DHT22;37815;52.692;6.226;2023-02-01T16:17:01;8.70;99.90
51739;DHT22;37815;52.692;6.226;2023-02-01T16:22:01;8.60;99.90
51739;DHT22;37815;52.692;6.226;2023-02-01T16:27:02;8.60;99.90
51739;DHT22;37815;52.692;6.226;2023-02-01T16:32:03;8.60;99.90
51739;DHT22;37815;52.692;6.226;2023-02-01T16:37:04;8.60;99.90
51739;DHT22;37815;52.692;6.226;2023-02-01T16:42:11;8.50;99.90
51739;DHT22;37815;52.692;6.226;2023-02-01T16:47:20;8.50;99.90
51739;DHT22;37815;52.692;6.226;2023-02-01T16:52:24;8.50;99.90
51739;DHT22;37815;52.692;6.226;2023-02-01T16:57:25;7.60;99.90
51739;DHT22;37815;52.692;6.226;2023-02-01T17:02:28;8.50;99.90
51739;DHT22;37815;52.692;6.226;2023-02-01T17:07:29;8.50;99.90
51739;DHT22;37815;52.692;6.226;2023-02-01T17:12:31;8.50;99.90
51739;DHT22;37815;52.692;6.226;2023-02-01T17:17:36;8.50;99.90
51739;DHT22;37815;52.692;6.226;2023-02-01T17:22:37;8.50;99.90
51739;DHT22;37815;52.692;6.226;2023-02-01T17:27:38;8.40;99.90
51739;DHT22;37815;52.692;6.226;2023-02-01T17:32:41;8.40;99.90
51739;DHT22;37815;52.692;6.226;2023-02-01T17:37:42;8.40;99.90
51739;DHT22;37815;52.692;6.226;2023-02-01T17:42:42;8.40;99.90
51739;DHT22;37815;52.692;6.226;2023-02-01T17:47:43;8.40;99.90
51739;DHT22;37815;52.692;6.226;2023-02-01T17:52:44;8.40;99.90
51739;DHT22;37815;52.692;6.226;2023-02-01T17:57:44;8.40;99.90
51739;DHT22;37815;52.692;6.226;2023-02-01T18:02:45;8.40;99.90
51739;DHT22;37815;52.692;6.226;2023-02-01T18:07:46;8.40;99.90
51739;DHT22;37815;52.692;6.226;2023-02-01T18:12:46;8.40;99.90
51739;DHT22;37815;52.692;6.226;2023-02-01T18:17:47;8.40;99.90
51739;DHT22;37815;52.692;6.226;2023-02-01T18:22:48;8.30;99.90
51739;DHT22;37815;52.692;6.226;2023-02-01T18:27:53;8.40;99.90
51739;DHT22;37815;52.692;6.226;2023-02-01T18:32:53;8.50;99.90
51739;DHT22;37815;52.692;6.226;2023-02-01T18:37:54;8.40;99.90
51739;DHT22;37815;52.692;6.226;2023-02-01T18:42:55;8.40;99.90
51739;DHT22;37815;52.692;6.226;2023-02-01T18:47:58;8.50;99.90
51739;DHT22;37815;52.692;6.226;2023-02-01T18:53:01;8.60;99.90
51739;DHT22;37815;52.692;6.226;2023-02-01T18:58:03;9.10;99.90
51739;DHT22;37815;52.692;6.226;2023-02-01T19:03:05;9.60;99.90
51739;DHT22;37815;52.692;6.226;2023-02-01T19:08:06;9.50;99.90
51739;DHT22;37815;52.692;6.226;2023-02-01T19:13:09;9.30;99.90
51739;DHT22;37815;52.692;6.226;2023-02-01T19:18:12;9.20;99.90
51739;DHT22;37815;52.692;6.226;2023-02-01T19:23:14;9.10;99.90
51739;DHT22;37815;52.692;6.226;2023-02-01T19:28:15;9.00;99.90
51739;DHT22;37815;52.692;6.226;2023-02-01T19:33:16;8.90;99.90
51739;DHT22;37815;52.692;6.226;2023-02-01T19:38:17;8.90;99.90
51739;DHT22;37815;52.692;6.226;2023-02-01T19:43:17;8.80;99.90
51739;DHT22;37815;52.692;6.226;2023-02-01T19:48:18;8.80;99.90
51739;DHT22;37815;52.692;6.226;2023-02-01T19:53:19;8.70;99.90
51739;DHT22;37815;52.692;6.226;2023-02-01T19:58:24;8.70;99.90
51739;DHT22;37815;52.692;6.226;2023-02-01T20:03:26;8.70;99.90
51739;DHT22;37815;52.692;6.226;2023-02-01T20:08:26;8.60;99.90
51739;DHT22;37815;52.692;6.226;2023-02-01T20:13:27;8.60;99.90
51739;DHT22;37815;52.692;6.226;2023-02-01T20:18:28;8.60;99.90
51739;DHT22;37815;52.692;6.226;2023-02-01T20:23:28;8.60;99.90
51739;DHT22;37815;52.692;6.226;2023-02-01T20:28:30;8.60;99.90
51739;DHT22;37815;52.692;6.226;2023-02-01T20:33:31;8.60;99.90
51739;DHT22;37815;52.692;6.226;2023-02-01T20:38:33;8.60;99.90
51739;DHT22;37815;52.692;6.226;2023-02-01T20:43:34;8.50;99.90
51739;DHT22;37815;52.692;6.226;2023-02-01T20:48:36;8.50;99.90
51739;DHT22;37815;52.692;6.226;2023-02-01T20:53:38;8.50;99.90
51739;DHT22;37815;52.692;6.226;2023-02-01T20:58:38;8.50;99.90
51739;DHT22;37815;52.692;6.226;2023-02-01T21:03:40;8.50;99.90
51739;DHT22;37815;52.692;6.226;2023-02-01T21:08:40;8.50;99.90
51739;DHT22;37815;52.692;6.226;2023-02-01T21:13:43;8.90;99.90
51739;DHT22;37815;52.692;6.226;2023-02-01T21:18:50;8.40;99.90
51739;DHT22;37815;52.692;6.226;2023-02-01T21:23:53;8.40;99.90
51739;DHT22;37815;52.692;6.226;2023-02-01T21:28:55;8.40;99.90
51739;DHT22;37815;52.692;6.226;2023-02-01T21:33:56;8.40;99.90
51739;DHT22;37815;52.692;6.226;2023-02-01T21:38:56;8.50;99.90
51739;DHT22;37815;52.692;6.226;2023-02-01T21:44:03;8.40;99.90
51739;DHT22;37815;52.692;6.226;2023-02-01T21:49:05;8.40;99.90
51739;DHT22;37815;52.692;6.226;2023-02-01T21:54:07;8.30;99.90
51739;DHT22;37815;52.692;6.226;2023-02-01T21:59:09;8.30;99.90
51739;DHT22;37815;52.692;6.226;2023-02-01T22:04:10;8.30;99.90
51739;DHT22;37815;52.692;6.226;2023-02-01T22:09:22;8.30;99.90
51739;DHT22;37815;52.692;6.226;2023-02-01T22:14:22;8.30;99.90
51739;DHT22;37815;52.692;6.226;2023-02-01T22:19:23;8.30;99.90
51739;DHT22;37815;52.692;6.226;2023-02-01T22:24:24;8.30;99.90
51739;DHT22;37815;52.692;6.226;2023-02-01T22:29:25;8.20;99.90
51739;DHT22;37815;52.692;6.226;2023-02-01T22:34:26;8.20;99.90
51739;DHT22;37815;52.692;6.226;2023-02-01T22:39:29;8.20;99.90
51739;DHT22;37815;52.692;6.226;2023-02-01T22:44:30;8.20;99.90
51739;DHT22;37815;52.692;6.226;2023-02-01T22:49:31;8.20;99.90
51739;DHT22;37815;52.692;6.226;2023-02-01T22:54:32;8.20;99.90
51739;DHT22;37815;52.692;6.226;2023-02-01T22:59:33;8.20;99.90
51739;DHT22;37815;52.692;6.226;2023-02-01T23:04:34;8.20;99.90
51739;DHT22;37815;52.692;6.226;2023-02-01T23:09:34;8.10;99.90
51739;DHT22;37815;52.692;6.226;2023-02-01T23:14:35;8.10;99.90
51739;DHT22;37815;52.692;6.226;2023-02-01T23:19:55;8.10;99.90
51739;DHT22;37815;52.692;6.226;2023-02-01T23:24:56;8.10;99.90
51739;DHT22;37815;52.692;6.226;2023-02-01T23:29:56;8.10;99.90
51739;DHT22;37815;52.692;6.226;2023-02-01T23:34:57;8.10;99.90
51739;DHT22;37815;52.692;6.226;2023-02-01T23:39:58;8.10;99.90
51739;DHT22;37815;52.692;6.226;2023-02-01T23:44:58;8.10;99.90
51739;DHT22;37815;52.692;6.226;2023-02-01T23:49:59;8.10;99.90
51739;DHT22;37815;52.692;6.226;2023-02-01T23:54:59;8.10;99.90
